createdAt,value
2023-05-17T00:02:03.109Z,14.10
2023-05-17T00:07:05.690Z,14.06
2023-05-17T00:12:08.443Z,14.01
2023-05-17T00:17:10.900Z,13.94
2023-05-17T00:22:13.418Z,13.91
2023-05-17T00:27:15.990Z,13.84
2023-05-17T00:32:18.550Z,13.80
2023-05-17T00:37:20.934Z,13.86
2023-05-17T00:42:23.571Z,13.90
2023-05-17T00:47:26.212Z,13.95
2023-05-17T00:52:28.852Z,13.90
2023-05-17T00:57:32.616Z,13.95
2023-05-17T01:02:37.310Z,14.00
2023-05-17T01:07:40.532Z,14.02
2023-05-17T01:12:46.069Z,14.05
2023-05-17T01:18:28.620Z,14.02
2023-05-17T01:24:00.349Z,14.04
2023-05-17T01:29:05.154Z,13.91
2023-05-17T01:34:09.172Z,13.91
2023-05-17T01:39:12.094Z,13.94
2023-05-17T01:44:30.297Z,14.00
2023-05-17T01:49:39.056Z,14.06
2023-05-17T01:54:51.316Z,14.10
2023-05-17T01:59:56.028Z,14.22
2023-05-17T02:04:58.854Z,14.47
2023-05-17T02:10:02.268Z,14.96
2023-05-17T02:15:08.053Z,15.49
2023-05-17T02:20:12.128Z,15.94
2023-05-17T02:25:14.741Z,16.44
2023-05-17T02:30:18.353Z,16.99
2023-05-17T02:35:21.023Z,17.39
2023-05-17T02:40:26.837Z,17.68
2023-05-17T02:45:29.813Z,17.85
2023-05-17T02:50:32.426Z,17.96
2023-05-17T02:55:35.864Z,18.33
2023-05-17T03:00:38.400Z,18.52
2023-05-17T03:05:41.192Z,18.18
2023-05-17T03:10:44.662Z,17.13
2023-05-17T03:15:47.973Z,16.50
2023-05-17T03:20:51.633Z,16.36
2023-05-17T03:25:54.326Z,16.24
2023-05-17T03:30:56.978Z,16.31
2023-05-17T03:36:01.158Z,16.36
2023-05-17T03:41:05.734Z,16.49
2023-05-17T03:46:08.338Z,16.54
2023-05-17T03:51:10.762Z,16.59
2023-05-17T03:56:13.713Z,16.59
2023-05-17T04:01:17.811Z,16.76
2023-05-17T04:06:21.278Z,16.80
2023-05-17T04:11:27.715Z,16.84
2023-05-17T04:16:32.481Z,16.87
2023-05-17T04:21:35.647Z,17.10
2023-05-17T04:26:38.987Z,17.19
2023-05-17T04:31:41.612Z,17.23
2023-05-17T04:36:44.182Z,17.42
2023-05-17T04:41:47.092Z,19.85
2023-05-17T04:46:53.922Z,22.29
2023-05-17T04:51:59.417Z,23.92
2023-05-17T04:57:02.268Z,25.07
2023-05-17T05:02:23.348Z,26.54
2023-05-17T05:07:26.074Z,27.30
2023-05-17T05:12:28.720Z,27.07
2023-05-17T05:17:31.741Z,27.71
2023-05-17T05:22:35.338Z,28.53
2023-05-17T05:27:38.104Z,26.12
2023-05-17T05:32:40.771Z,24.95
2023-05-17T05:37:43.941Z,23.95
2023-05-17T05:42:46.630Z,23.36
2023-05-17T05:47:49.538Z,22.75
2023-05-17T05:52:53.467Z,22.54
2023-05-17T05:57:58.662Z,22.96
2023-05-17T06:03:01.465Z,23.97
2023-05-17T06:08:04.268Z,26.16
2023-05-17T06:13:06.876Z,29.06
2023-05-17T06:18:09.524Z,30.50
2023-05-17T06:23:12.059Z,30.94
2023-05-17T06:28:14.700Z,31.95
2023-05-17T06:33:17.367Z,32.05
2023-05-17T06:38:19.989Z,32.95
2023-05-17T06:43:22.987Z,33.62
2023-05-17T06:48:25.739Z,34.22
2023-05-17T06:53:28.255Z,34.13
2023-05-17T06:58:31.228Z,34.87
2023-05-17T07:03:34.518Z,34.56
2023-05-17T07:08:37.079Z,35.52
2023-05-17T07:13:39.312Z,34.40
2023-05-17T07:18:41.733Z,33.76
2023-05-17T07:23:44.520Z,33.83
2023-05-17T07:28:47.463Z,33.30
2023-05-17T07:33:49.932Z,32.92
2023-05-17T07:38:52.361Z,32.95
2023-05-17T07:43:54.802Z,33.81
2023-05-17T07:48:58.853Z,33.58
2023-05-17T07:54:03.494Z,34.09
2023-05-17T07:59:06.300Z,34.51
2023-05-17T08:04:09.046Z,34.45
2023-05-17T08:09:11.816Z,34.34
2023-05-17T08:14:15.636Z,34.29
2023-05-17T08:19:18.720Z,34.25
2023-05-17T08:24:21.235Z,33.73
2023-05-17T08:29:23.946Z,32.93
2023-05-17T08:34:26.513Z,33.29
2023-05-17T08:39:28.842Z,33.62
2023-05-17T08:44:31.431Z,32.04
2023-05-17T08:49:34.845Z,29.62
2023-05-17T08:54:37.957Z,28.47
2023-05-17T08:59:41.873Z,27.29
2023-05-17T09:04:44.587Z,28.01
2023-05-17T09:09:47.427Z,28.37
2023-05-17T09:14:50.597Z,28.70
2023-05-17T09:19:53.243Z,28.94
2023-05-17T09:25:00.378Z,30.56
2023-05-17T09:30:02.876Z,32.09
2023-05-17T09:35:07.398Z,34.03
2023-05-17T09:40:11.030Z,33.91
2023-05-17T09:45:14.782Z,30.60
2023-05-17T09:50:22.452Z,29.74
2023-05-17T09:55:28.408Z,29.03
2023-05-17T10:00:32.573Z,30.56
2023-05-17T10:05:35.745Z,30.39
2023-05-17T10:10:38.718Z,30.47
2023-05-17T10:15:41.197Z,30.03
2023-05-17T10:20:44.253Z,29.72
2023-05-17T10:25:47.063Z,29.48
2023-05-17T10:30:51.776Z,30.56
2023-05-17T10:35:56.364Z,30.78
2023-05-17T10:41:00.493Z,30.83
2023-05-17T10:46:04.814Z,29.65
2023-05-17T10:51:07.781Z,28.70
2023-05-17T10:56:10.401Z,28.61
2023-05-17T11:01:52.952Z,28.12
2023-05-17T11:07:19.317Z,27.88
2023-05-17T11:12:33.316Z,27.54
2023-05-17T11:17:50.567Z,27.09
2023-05-17T11:23:01.726Z,26.83
2023-05-17T11:28:09.449Z,27.24
2023-05-17T11:33:21.294Z,26.96
2023-05-17T11:38:34.893Z,26.73
2023-05-17T11:43:37.388Z,26.64
2023-05-17T11:48:40.465Z,26.96
2023-05-17T11:53:44.696Z,26.91
2023-05-17T11:58:55.321Z,26.72
2023-05-17T12:04:01.227Z,26.80
2023-05-17T12:09:06.330Z,26.15
2023-05-17T12:14:08.822Z,26.66
2023-05-17T12:19:22.749Z,27.22
2023-05-17T12:24:37.845Z,26.97
2023-05-17T12:29:40.385Z,26.51
2023-05-17T12:34:43.103Z,25.94
2023-05-17T12:39:45.835Z,25.57
2023-05-17T12:44:48.292Z,25.25
2023-05-17T12:49:57.155Z,25.12
2023-05-17T12:54:59.797Z,25.30
2023-05-17T13:00:08.096Z,25.37
2023-05-17T13:05:23.540Z,25.52
2023-05-17T13:10:28.071Z,25.37
2023-05-17T13:15:32.735Z,25.08
2023-05-17T13:20:35.301Z,24.97
2023-05-17T13:25:37.688Z,24.87
2023-05-17T13:30:40.224Z,25.05
2023-05-17T13:35:42.828Z,24.96
2023-05-17T13:40:45.562Z,24.90
2023-05-17T13:45:51.369Z,24.70
2023-05-17T13:50:53.887Z,24.39
2023-05-17T13:55:56.340Z,24.13
2023-05-17T14:00:58.874Z,23.76
2023-05-17T14:06:01.476Z,23.49
2023-05-17T14:11:04.020Z,23.30
2023-05-17T14:16:06.952Z,23.34
2023-05-17T14:21:09.497Z,23.40
2023-05-17T14:26:12.097Z,23.28
2023-05-17T14:31:14.561Z,23.15
2023-05-17T14:36:16.960Z,23.10
2023-05-17T14:41:19.379Z,23.02
2023-05-17T14:46:21.902Z,22.84
2023-05-17T14:51:25.285Z,22.69
2023-05-17T14:56:27.990Z,22.55
2023-05-17T15:01:30.383Z,22.48
2023-05-17T15:06:33.244Z,22.45
2023-05-17T15:11:35.754Z,22.34
2023-05-17T15:16:38.748Z,22.37
2023-05-17T15:21:41.456Z,22.24
2023-05-17T15:26:44.645Z,22.04
2023-05-17T15:31:47.062Z,21.90
2023-05-17T15:36:49.465Z,21.69
2023-05-17T15:41:53.192Z,21.57
2023-05-17T15:46:55.676Z,21.61
2023-05-17T15:51:58.170Z,21.70
2023-05-17T15:57:00.507Z,21.84
2023-05-17T16:02:03.022Z,21.72
2023-05-17T16:07:05.597Z,22.08
2023-05-17T16:12:08.616Z,22.52
2023-05-17T16:17:11.338Z,22.83
2023-05-17T16:22:14.323Z,22.90
2023-05-17T16:27:16.724Z,22.79
2023-05-17T16:32:19.360Z,22.48
2023-05-17T16:37:21.999Z,22.20
2023-05-17T16:42:24.660Z,21.90
2023-05-17T16:47:28.428Z,21.67
2023-05-17T16:52:31.261Z,21.36
2023-05-17T16:57:33.788Z,21.06
2023-05-17T17:02:36.781Z,20.89
2023-05-17T17:07:39.317Z,20.68
2023-05-17T17:12:41.822Z,20.60
2023-05-17T17:17:45.963Z,20.42
2023-05-17T17:22:48.525Z,20.30
2023-05-17T17:27:53.075Z,20.30
2023-05-17T17:32:56.406Z,20.31
2023-05-17T17:37:59.284Z,20.32
2023-05-17T17:43:01.779Z,20.18
2023-05-17T17:48:04.452Z,20.01
2023-05-17T17:53:07.213Z,19.79
2023-05-17T17:58:09.755Z,19.67
2023-05-17T18:03:13.257Z,19.51
2023-05-17T18:08:15.725Z,19.42
2023-05-17T18:13:18.175Z,19.31
2023-05-17T18:18:20.713Z,19.31
2023-05-17T18:23:23.272Z,19.23
2023-05-17T18:28:38.202Z,19.16
2023-05-17T18:33:44.873Z,19.17
2023-05-17T18:38:47.243Z,19.22
2023-05-17T18:43:51.242Z,19.13
2023-05-17T18:48:53.580Z,19.09
2023-05-17T18:53:56.082Z,19.10
2023-05-17T18:58:59.399Z,19.23
2023-05-17T19:04:01.824Z,19.22
2023-05-17T19:09:04.424Z,19.10
2023-05-17T19:14:07.088Z,19.00
2023-05-17T19:19:09.672Z,18.86
2023-05-17T19:24:12.256Z,18.76
2023-05-17T19:29:15.029Z,18.68
2023-05-17T19:34:18.832Z,18.52
2023-05-17T19:39:21.570Z,18.41
2023-05-17T19:44:23.967Z,18.24
2023-05-17T19:49:26.531Z,18.13
2023-05-17T19:54:29.858Z,18.10
2023-05-17T19:59:32.569Z,18.20
2023-05-17T20:04:34.987Z,18.24
2023-05-17T20:09:38.700Z,18.27
2023-05-17T20:14:41.269Z,18.38
2023-05-17T20:19:43.861Z,18.47
2023-05-17T20:24:46.345Z,18.69
2023-05-17T20:29:48.781Z,18.77
2023-05-17T20:34:51.200Z,18.77
2023-05-17T20:39:53.733Z,18.71
2023-05-17T20:44:57.993Z,18.58
2023-05-17T20:50:00.469Z,18.51
2023-05-17T20:55:02.876Z,18.44
2023-05-17T21:00:08.569Z,18.31
2023-05-17T21:05:11.692Z,18.26
2023-05-17T21:10:14.137Z,18.19
2023-05-17T21:15:31.132Z,18.14
2023-05-17T21:20:33.566Z,18.10
2023-05-17T21:25:37.890Z,18.07
2023-05-17T21:30:40.412Z,18.01
2023-05-17T21:35:42.886Z,17.97
2023-05-17T21:40:45.316Z,17.94
2023-05-17T21:45:47.749Z,17.88
2023-05-17T21:50:50.268Z,17.83
2023-05-17T21:56:01.888Z,17.79
2023-05-17T22:01:05.410Z,17.80
2023-05-17T22:06:08.076Z,17.72
2023-05-17T22:11:11.252Z,17.74
2023-05-17T22:16:14.216Z,17.69
2023-05-17T22:21:17.879Z,17.65
2023-05-17T22:26:20.409Z,17.60
2023-05-17T22:31:23.120Z,17.48
2023-05-17T22:36:26.914Z,17.44
2023-05-17T22:41:29.339Z,17.43
2023-05-17T22:46:32.311Z,17.43
2023-05-17T22:51:35.636Z,17.48
2023-05-17T22:56:38.387Z,17.47
2023-05-17T23:01:41.071Z,17.44
2023-05-17T23:06:43.576Z,17.34
2023-05-17T23:11:45.987Z,17.33
2023-05-17T23:16:48.650Z,17.25
2023-05-17T23:21:51.403Z,17.17
2023-05-17T23:26:53.808Z,17.16
2023-05-17T23:31:56.467Z,17.17
2023-05-17T23:36:58.996Z,17.13
2023-05-17T23:42:01.480Z,17.04
2023-05-17T23:47:05.158Z,16.95
2023-05-17T23:52:11.496Z,16.86
2023-05-17T23:57:14.338Z,16.81
